sensor_id;sensor_type;location;lat;lon;timestamp;P1;durP1;ratioP1;P2;durP2;ratioP2
70970;SDS011;58632;51.718;19.446;2023-06-22T00:00:57;23.00;;;20.80;;
70970;SDS011;58632;51.718;19.446;2023-06-22T00:03:31;22.00;;;19.90;;
70970;SDS011;58632;51.718;19.446;2023-06-22T00:05:59;21.10;;;19.00;;
70970;SDS011;58632;51.718;19.446;2023-06-22T00:08:25;21.70;;;19.50;;
70970;SDS011;58632;51.718;19.446;2023-06-22T00:10:51;24.00;;;20.30;;
70970;SDS011;58632;51.718;19.446;2023-06-22T00:13:16;22.80;;;20.40;;
70970;SDS011;58632;51.718;19.446;2023-06-22T00:18:09;22.50;;;19.20;;
70970;SDS011;58632;51.718;19.446;2023-06-22T00:20:36;21.90;;;19.60;;
70970;SDS011;58632;51.718;19.446;2023-06-22T00:23:02;21.30;;;19.10;;
70970;SDS011;58632;51.718;19.446;2023-06-22T00:25:35;22.30;;;20.00;;
70970;SDS011;58632;51.718;19.446;2023-06-22T00:28:02;20.90;;;18.70;;
70970;SDS011;58632;51.718;19.446;2023-06-22T00:30:29;21.30;;;19.00;;
70970;SDS011;58632;51.718;19.446;2023-06-22T00:32:56;24.20;;;19.60;;
70970;SDS011;58632;51.718;19.446;2023-06-22T00:35:21;22.10;;;19.80;;
70970;SDS011;58632;51.718;19.446;2023-06-22T00:37:47;21.90;;;19.70;;
70970;SDS011;58632;51.718;19.446;2023-06-22T00:40:13;21.90;;;19.50;;
70970;SDS011;58632;51.718;19.446;2023-06-22T00:45:05;22.00;;;19.90;;
70970;SDS011;58632;51.718;19.446;2023-06-22T00:47:32;22.60;;;20.30;;
70970;SDS011;58632;51.718;19.446;2023-06-22T00:49:59;23.20;;;20.80;;
70970;SDS011;58632;51.718;19.446;2023-06-22T00:52:25;24.80;;;22.10;;
70970;SDS011;58632;51.718;19.446;2023-06-22T00:54:56;22.80;;;20.40;;
70970;SDS011;58632;51.718;19.446;2023-06-22T00:59:53;23.50;;;21.10;;
70970;SDS011;58632;51.718;19.446;2023-06-22T01:02:19;22.20;;;20.00;;
70970;SDS011;58632;51.718;19.446;2023-06-22T01:04:45;24.50;;;21.10;;
70970;SDS011;58632;51.718;19.446;2023-06-22T01:07:22;22.50;;;20.30;;
70970;SDS011;58632;51.718;19.446;2023-06-22T01:10:10;21.40;;;19.30;;
70970;SDS011;58632;51.718;19.446;2023-06-22T01:12:48;22.10;;;19.90;;
70970;SDS011;58632;51.718;19.446;2023-06-22T01:15:21;22.80;;;20.50;;
70970;SDS011;58632;51.718;19.446;2023-06-22T01:17:49;25.10;;;22.30;;
70970;SDS011;58632;51.718;19.446;2023-06-22T01:20:17;22.90;;;20.50;;
70970;SDS011;58632;51.718;19.446;2023-06-22T01:25:47;23.50;;;21.00;;
70970;SDS011;58632;51.718;19.446;2023-06-22T01:28:24;23.10;;;20.80;;
70970;SDS011;58632;51.718;19.446;2023-06-22T01:30:56;23.10;;;20.60;;
70970;SDS011;58632;51.718;19.446;2023-06-22T01:33:31;23.80;;;21.40;;
70970;SDS011;58632;51.718;19.446;2023-06-22T01:36:00;23.30;;;21.00;;
70970;SDS011;58632;51.718;19.446;2023-06-22T01:38:26;24.80;;;22.40;;
70970;SDS011;58632;51.718;19.446;2023-06-22T01:40:56;22.20;;;20.00;;
70970;SDS011;58632;51.718;19.446;2023-06-22T01:43:23;23.20;;;21.00;;
70970;SDS011;58632;51.718;19.446;2023-06-22T01:45:51;22.80;;;20.60;;
70970;SDS011;58632;51.718;19.446;2023-06-22T01:50:43;22.90;;;20.50;;
70970;SDS011;58632;51.718;19.446;2023-06-22T01:53:09;23.70;;;21.40;;
70970;SDS011;58632;51.718;19.446;2023-06-22T01:55:35;22.20;;;20.10;;
70970;SDS011;58632;51.718;19.446;2023-06-22T01:58:00;24.00;;;21.40;;
70970;SDS011;58632;51.718;19.446;2023-06-22T02:00:26;23.90;;;21.30;;
70970;SDS011;58632;51.718;19.446;2023-06-22T02:02:59;22.40;;;20.20;;
70970;SDS011;58632;51.718;19.446;2023-06-22T02:05:31;21.30;;;19.10;;
70970;SDS011;58632;51.718;19.446;2023-06-22T02:08:02;22.80;;;20.60;;
70970;SDS011;58632;51.718;19.446;2023-06-22T02:10:41;20.60;;;18.40;;
70970;SDS011;58632;51.718;19.446;2023-06-22T02:13:09;20.90;;;18.90;;
70970;SDS011;58632;51.718;19.446;2023-06-22T02:15:36;19.90;;;17.80;;
70970;SDS011;58632;51.718;19.446;2023-06-22T02:18:02;21.30;;;19.10;;
70970;SDS011;58632;51.718;19.446;2023-06-22T02:20:28;20.60;;;18.70;;
70970;SDS011;58632;51.718;19.446;2023-06-22T02:22:55;22.20;;;20.10;;
70970;SDS011;58632;51.718;19.446;2023-06-22T02:25:21;20.30;;;18.40;;
70970;SDS011;58632;51.718;19.446;2023-06-22T02:27:47;21.70;;;19.50;;
70970;SDS011;58632;51.718;19.446;2023-06-22T02:30:13;20.50;;;18.30;;
70970;SDS011;58632;51.718;19.446;2023-06-22T02:32:41;19.60;;;17.60;;
70970;SDS011;58632;51.718;19.446;2023-06-22T02:35:10;18.40;;;16.50;;
70970;SDS011;58632;51.718;19.446;2023-06-22T02:37:36;20.80;;;18.60;;
70970;SDS011;58632;51.718;19.446;2023-06-22T02:40:09;20.60;;;18.50;;
70970;SDS011;58632;51.718;19.446;2023-06-22T02:42:36;20.10;;;18.10;;
70970;SDS011;58632;51.718;19.446;2023-06-22T02:45:02;20.20;;;18.10;;
70970;SDS011;58632;51.718;19.446;2023-06-22T02:47:28;20.80;;;18.60;;
70970;SDS011;58632;51.718;19.446;2023-06-22T02:49:54;19.20;;;17.30;;
70970;SDS011;58632;51.718;19.446;2023-06-22T02:52:19;18.30;;;16.40;;
70970;SDS011;58632;51.718;19.446;2023-06-22T02:54:45;19.90;;;17.70;;
70970;SDS011;58632;51.718;19.446;2023-06-22T02:57:11;19.20;;;17.30;;
70970;SDS011;58632;51.718;19.446;2023-06-22T02:59:42;19.50;;;17.40;;
70970;SDS011;58632;51.718;19.446;2023-06-22T03:02:08;19.20;;;17.20;;
70970;SDS011;58632;51.718;19.446;2023-06-22T03:04:34;18.90;;;17.00;;
70970;SDS011;58632;51.718;19.446;2023-06-22T03:07:03;18.70;;;16.70;;
70970;SDS011;58632;51.718;19.446;2023-06-22T03:09:29;18.70;;;16.80;;
70970;SDS011;58632;51.718;19.446;2023-06-22T03:11:54;18.30;;;16.50;;
70970;SDS011;58632;51.718;19.446;2023-06-22T03:14:20;18.30;;;16.50;;
70970;SDS011;58632;51.718;19.446;2023-06-22T03:16:46;18.80;;;16.90;;
70970;SDS011;58632;51.718;19.446;2023-06-22T03:19:14;19.20;;;17.30;;
70970;SDS011;58632;51.718;19.446;2023-06-22T03:21:39;18.70;;;16.90;;
70970;SDS011;58632;51.718;19.446;2023-06-22T03:24:06;17.80;;;16.00;;
70970;SDS011;58632;51.718;19.446;2023-06-22T03:26:34;17.10;;;15.40;;
70970;SDS011;58632;51.718;19.446;2023-06-22T03:29:03;17.40;;;15.70;;
70970;SDS011;58632;51.718;19.446;2023-06-22T03:31:31;19.10;;;17.10;;
70970;SDS011;58632;51.718;19.446;2023-06-22T03:33:56;18.70;;;17.00;;
70970;SDS011;58632;51.718;19.446;2023-06-22T03:36:22;18.30;;;16.50;;
70970;SDS011;58632;51.718;19.446;2023-06-22T03:38:51;18.30;;;16.30;;
70970;SDS011;58632;51.718;19.446;2023-06-22T03:41:16;18.80;;;17.10;;
70970;SDS011;58632;51.718;19.446;2023-06-22T03:43:42;18.20;;;16.40;;
70970;SDS011;58632;51.718;19.446;2023-06-22T03:46:07;17.10;;;15.40;;
70970;SDS011;58632;51.718;19.446;2023-06-22T03:48:33;17.70;;;15.50;;
70970;SDS011;58632;51.718;19.446;2023-06-22T03:50:59;19.30;;;14.70;;
70970;SDS011;58632;51.718;19.446;2023-06-22T03:53:25;16.60;;;14.80;;
70970;SDS011;58632;51.718;19.446;2023-06-22T03:55:51;17.20;;;15.50;;
70970;SDS011;58632;51.718;19.446;2023-06-22T04:00:50;16.70;;;15.00;;
70970;SDS011;58632;51.718;19.446;2023-06-22T04:03:17;14.80;;;12.60;;
70970;SDS011;58632;51.718;19.446;2023-06-22T04:05:46;16.00;;;14.40;;
70970;SDS011;58632;51.718;19.446;2023-06-22T04:08:12;15.60;;;13.90;;
70970;SDS011;58632;51.718;19.446;2023-06-22T04:13:04;16.10;;;14.40;;
70970;SDS011;58632;51.718;19.446;2023-06-22T04:15:29;16.10;;;13.80;;
70970;SDS011;58632;51.718;19.446;2023-06-22T04:17:55;14.60;;;13.10;;
70970;SDS011;58632;51.718;19.446;2023-06-22T04:20:22;15.00;;;12.70;;
70970;SDS011;58632;51.718;19.446;2023-06-22T04:25:33;16.50;;;11.80;;
70970;SDS011;58632;51.718;19.446;2023-06-22T04:27:58;14.20;;;11.30;;
70970;SDS011;58632;51.718;19.446;2023-06-22T04:30:32;12.40;;;9.60;;
70970;SDS011;58632;51.718;19.446;2023-06-22T04:32:58;12.50;;;10.30;;
70970;SDS011;58632;51.718;19.446;2023-06-22T04:35:24;11.20;;;10.10;;
70970;SDS011;58632;51.718;19.446;2023-06-22T04:37:50;11.00;;;9.90;;
70970;SDS011;58632;51.718;19.446;2023-06-22T04:40:22;14.50;;;9.40;;
70970;SDS011;58632;51.718;19.446;2023-06-22T04:42:48;10.80;;;9.10;;
70970;SDS011;58632;51.718;19.446;2023-06-22T04:45:18;11.30;;;8.80;;
70970;SDS011;58632;51.718;19.446;2023-06-22T04:47:44;8.80;;;7.90;;
70970;SDS011;58632;51.718;19.446;2023-06-22T04:50:11;8.70;;;7.80;;
70970;SDS011;58632;51.718;19.446;2023-06-22T04:52:37;8.60;;;7.70;;
70970;SDS011;58632;51.718;19.446;2023-06-22T04:55:03;8.70;;;7.80;;
70970;SDS011;58632;51.718;19.446;2023-06-22T04:57:29;10.00;;;7.40;;
70970;SDS011;58632;51.718;19.446;2023-06-22T04:59:58;8.30;;;6.90;;
70970;SDS011;58632;51.718;19.446;2023-06-22T05:02:36;8.90;;;6.60;;
70970;SDS011;58632;51.718;19.446;2023-06-22T05:05:02;7.50;;;6.70;;
70970;SDS011;58632;51.718;19.446;2023-06-22T05:07:34;9.10;;;6.90;;
70970;SDS011;58632;51.718;19.446;2023-06-22T05:10:03;8.10;;;7.10;;
70970;SDS011;58632;51.718;19.446;2023-06-22T05:12:30;7.70;;;6.30;;
70970;SDS011;58632;51.718;19.446;2023-06-22T05:14:56;7.90;;;7.10;;
70970;SDS011;58632;51.718;19.446;2023-06-22T05:17:21;7.40;;;6.60;;
70970;SDS011;58632;51.718;19.446;2023-06-22T05:19:47;7.80;;;6.40;;
70970;SDS011;58632;51.718;19.446;2023-06-22T05:22:16;8.20;;;6.10;;
70970;SDS011;58632;51.718;19.446;2023-06-22T05:24:42;8.40;;;6.60;;
70970;SDS011;58632;51.718;19.446;2023-06-22T05:27:09;9.60;;;6.60;;
70970;SDS011;58632;51.718;19.446;2023-06-22T05:29:35;7.50;;;6.40;;
70970;SDS011;58632;51.718;19.446;2023-06-22T05:32:01;9.80;;;7.00;;
70970;SDS011;58632;51.718;19.446;2023-06-22T05:34:29;8.10;;;6.60;;
70970;SDS011;58632;51.718;19.446;2023-06-22T05:36:55;7.90;;;5.90;;
70970;SDS011;58632;51.718;19.446;2023-06-22T05:39:24;8.80;;;6.20;;
70970;SDS011;58632;51.718;19.446;2023-06-22T05:41:50;8.30;;;5.90;;
70970;SDS011;58632;51.718;19.446;2023-06-22T05:44:15;7.80;;;6.30;;
70970;SDS011;58632;51.718;19.446;2023-06-22T05:46:42;11.00;;;6.30;;
70970;SDS011;58632;51.718;19.446;2023-06-22T05:49:13;9.30;;;6.70;;
70970;SDS011;58632;51.718;19.446;2023-06-22T05:51:39;7.70;;;5.70;;
70970;SDS011;58632;51.718;19.446;2023-06-22T05:54:06;8.10;;;5.60;;
70970;SDS011;58632;51.718;19.446;2023-06-22T05:56:33;7.00;;;5.90;;
70970;SDS011;58632;51.718;19.446;2023-06-22T05:58:58;10.90;;;6.60;;
70970;SDS011;58632;51.718;19.446;2023-06-22T06:01:24;8.20;;;6.20;;
70970;SDS011;58632;51.718;19.446;2023-06-22T06:03:51;6.90;;;5.70;;
70970;SDS011;58632;51.718;19.446;2023-06-22T06:06:18;6.20;;;5.60;;
70970;SDS011;58632;51.718;19.446;2023-06-22T06:08:46;9.20;;;6.00;;
70970;SDS011;58632;51.718;19.446;2023-06-22T06:11:14;5.90;;;4.70;;
70970;SDS011;58632;51.718;19.446;2023-06-22T06:13:39;6.00;;;5.10;;
70970;SDS011;58632;51.718;19.446;2023-06-22T06:16:05;6.20;;;5.30;;
70970;SDS011;58632;51.718;19.446;2023-06-22T06:18:30;7.20;;;5.70;;
70970;SDS011;58632;51.718;19.446;2023-06-22T06:20:59;5.90;;;5.20;;
70970;SDS011;58632;51.718;19.446;2023-06-22T06:23:25;6.20;;;4.50;;
70970;SDS011;58632;51.718;19.446;2023-06-22T06:25:50;6.60;;;4.30;;
70970;SDS011;58632;51.718;19.446;2023-06-22T06:28:16;8.40;;;5.40;;
70970;SDS011;58632;51.718;19.446;2023-06-22T06:30:41;6.00;;;4.40;;
70970;SDS011;58632;51.718;19.446;2023-06-22T06:33:07;5.70;;;5.00;;
70970;SDS011;58632;51.718;19.446;2023-06-22T06:35:33;5.90;;;4.70;;
70970;SDS011;58632;51.718;19.446;2023-06-22T06:37:59;8.60;;;4.70;;
70970;SDS011;58632;51.718;19.446;2023-06-22T06:40:25;5.70;;;4.80;;
70970;SDS011;58632;51.718;19.446;2023-06-22T06:42:51;8.30;;;4.90;;
70970;SDS011;58632;51.718;19.446;2023-06-22T06:47:50;5.70;;;4.60;;
70970;SDS011;58632;51.718;19.446;2023-06-22T06:50:16;6.30;;;4.20;;
70970;SDS011;58632;51.718;19.446;2023-06-22T06:52:42;4.50;;;3.80;;
70970;SDS011;58632;51.718;19.446;2023-06-22T06:55:08;5.20;;;3.90;;
70970;SDS011;58632;51.718;19.446;2023-06-22T06:57:37;6.00;;;4.00;;
70970;SDS011;58632;51.718;19.446;2023-06-22T07:00:06;6.30;;;3.50;;
70970;SDS011;58632;51.718;19.446;2023-06-22T07:02:42;6.60;;;3.70;;
70970;SDS011;58632;51.718;19.446;2023-06-22T07:05:09;6.40;;;4.60;;
70970;SDS011;58632;51.718;19.446;2023-06-22T07:07:35;3.90;;;3.50;;
70970;SDS011;58632;51.718;19.446;2023-06-22T07:10:01;6.10;;;3.60;;
70970;SDS011;58632;51.718;19.446;2023-06-22T07:12:28;4.30;;;3.30;;
70970;SDS011;58632;51.718;19.446;2023-06-22T07:14:53;5.00;;;3.80;;
70970;SDS011;58632;51.718;19.446;2023-06-22T07:17:19;5.90;;;3.80;;
70970;SDS011;58632;51.718;19.446;2023-06-22T07:22:10;5.30;;;3.80;;
70970;SDS011;58632;51.718;19.446;2023-06-22T07:24:36;6.60;;;4.00;;
70970;SDS011;58632;51.718;19.446;2023-06-22T07:27:05;5.80;;;3.70;;
70970;SDS011;58632;51.718;19.446;2023-06-22T07:29:34;4.50;;;3.40;;
70970;SDS011;58632;51.718;19.446;2023-06-22T07:32:00;5.10;;;3.20;;
70970;SDS011;58632;51.718;19.446;2023-06-22T07:34:29;5.30;;;3.30;;
70970;SDS011;58632;51.718;19.446;2023-06-22T07:39:21;6.00;;;3.80;;
70970;SDS011;58632;51.718;19.446;2023-06-22T07:41:51;5.70;;;3.20;;
70970;SDS011;58632;51.718;19.446;2023-06-22T07:44:16;7.70;;;3.60;;
70970;SDS011;58632;51.718;19.446;2023-06-22T07:46:42;6.40;;;3.20;;
70970;SDS011;58632;51.718;19.446;2023-06-22T07:51:33;6.00;;;3.30;;
70970;SDS011;58632;51.718;19.446;2023-06-22T07:53:59;6.40;;;3.10;;
70970;SDS011;58632;51.718;19.446;2023-06-22T07:56:25;5.80;;;3.10;;
70970;SDS011;58632;51.718;19.446;2023-06-22T07:58:50;4.40;;;3.40;;
70970;SDS011;58632;51.718;19.446;2023-06-22T08:01:16;4.20;;;3.10;;
70970;SDS011;58632;51.718;19.446;2023-06-22T08:03:42;4.40;;;3.40;;
70970;SDS011;58632;51.718;19.446;2023-06-22T08:06:08;6.90;;;3.50;;
70970;SDS011;58632;51.718;19.446;2023-06-22T08:08:35;6.30;;;3.40;;
70970;SDS011;58632;51.718;19.446;2023-06-22T08:11:01;4.80;;;3.20;;
70970;SDS011;58632;51.718;19.446;2023-06-22T08:13:29;6.20;;;3.30;;
70970;SDS011;58632;51.718;19.446;2023-06-22T08:15:55;4.90;;;3.30;;
70970;SDS011;58632;51.718;19.446;2023-06-22T08:18:21;6.80;;;3.90;;
70970;SDS011;58632;51.718;19.446;2023-06-22T08:20:48;4.20;;;3.20;;
70970;SDS011;58632;51.718;19.446;2023-06-22T08:23:15;7.10;;;4.00;;
70970;SDS011;58632;51.718;19.446;2023-06-22T08:28:06;4.70;;;3.20;;
70970;SDS011;58632;51.718;19.446;2023-06-22T08:30:32;7.00;;;3.40;;
70970;SDS011;58632;51.718;19.446;2023-06-22T08:32:58;5.20;;;3.30;;
70970;SDS011;58632;51.718;19.446;2023-06-22T08:35:26;6.00;;;3.80;;
70970;SDS011;58632;51.718;19.446;2023-06-22T08:37:51;5.70;;;3.10;;
70970;SDS011;58632;51.718;19.446;2023-06-22T08:40:22;3.70;;;3.10;;
70970;SDS011;58632;51.718;19.446;2023-06-22T08:42:48;6.00;;;3.30;;
70970;SDS011;58632;51.718;19.446;2023-06-22T08:45:14;3.60;;;2.90;;
70970;SDS011;58632;51.718;19.446;2023-06-22T08:47:41;4.30;;;3.60;;
70970;SDS011;58632;51.718;19.446;2023-06-22T08:50:11;3.70;;;3.10;;
70970;SDS011;58632;51.718;19.446;2023-06-22T08:52:39;6.20;;;2.90;;
70970;SDS011;58632;51.718;19.446;2023-06-22T08:55:08;5.10;;;3.20;;
70970;SDS011;58632;51.718;19.446;2023-06-22T08:57:34;3.60;;;2.80;;
70970;SDS011;58632;51.718;19.446;2023-06-22T09:00:03;5.30;;;2.90;;
70970;SDS011;58632;51.718;19.446;2023-06-22T09:02:30;5.80;;;2.70;;
70970;SDS011;58632;51.718;19.446;2023-06-22T09:04:56;6.00;;;2.60;;
70970;SDS011;58632;51.718;19.446;2023-06-22T09:07:23;4.40;;;2.40;;
70970;SDS011;58632;51.718;19.446;2023-06-22T09:09:50;6.30;;;2.40;;
70970;SDS011;58632;51.718;19.446;2023-06-22T09:12:16;5.20;;;2.10;;
70970;SDS011;58632;51.718;19.446;2023-06-22T09:14:45;4.90;;;2.50;;
70970;SDS011;58632;51.718;19.446;2023-06-22T09:17:13;3.90;;;2.00;;
70970;SDS011;58632;51.718;19.446;2023-06-22T09:22:04;4.00;;;1.90;;
70970;SDS011;58632;51.718;19.446;2023-06-22T09:24:32;4.40;;;2.30;;
70970;SDS011;58632;51.718;19.446;2023-06-22T09:26:58;3.30;;;2.20;;
70970;SDS011;58632;51.718;19.446;2023-06-22T09:29:24;3.90;;;2.20;;
70970;SDS011;58632;51.718;19.446;2023-06-22T09:31:49;3.30;;;2.00;;
70970;SDS011;58632;51.718;19.446;2023-06-22T09:34:15;3.50;;;2.10;;
70970;SDS011;58632;51.718;19.446;2023-06-22T09:36:48;4.80;;;2.50;;
70970;SDS011;58632;51.718;19.446;2023-06-22T09:39:14;3.80;;;2.20;;
70970;SDS011;58632;51.718;19.446;2023-06-22T09:41:39;5.70;;;2.50;;
70970;SDS011;58632;51.718;19.446;2023-06-22T09:44:05;4.70;;;2.20;;
70970;SDS011;58632;51.718;19.446;2023-06-22T09:46:30;4.70;;;2.10;;
70970;SDS011;58632;51.718;19.446;2023-06-22T09:48:58;2.70;;;2.00;;
70970;SDS011;58632;51.718;19.446;2023-06-22T09:51:24;4.60;;;2.10;;
70970;SDS011;58632;51.718;19.446;2023-06-22T09:53:50;3.00;;;2.10;;
70970;SDS011;58632;51.718;19.446;2023-06-22T09:56:16;3.80;;;1.90;;
70970;SDS011;58632;51.718;19.446;2023-06-22T09:58:42;3.20;;;2.10;;
70970;SDS011;58632;51.718;19.446;2023-06-22T10:01:08;6.70;;;2.20;;
70970;SDS011;58632;51.718;19.446;2023-06-22T10:03:35;3.60;;;2.10;;
70970;SDS011;58632;51.718;19.446;2023-06-22T10:06:01;3.50;;;2.30;;
70970;SDS011;58632;51.718;19.446;2023-06-22T10:08:27;4.30;;;2.10;;
70970;SDS011;58632;51.718;19.446;2023-06-22T10:10:52;5.70;;;2.50;;
70970;SDS011;58632;51.718;19.446;2023-06-22T10:13:18;6.90;;;2.10;;
70970;SDS011;58632;51.718;19.446;2023-06-22T10:15:46;3.90;;;2.20;;
70970;SDS011;58632;51.718;19.446;2023-06-22T10:18:17;2.90;;;2.00;;
70970;SDS011;58632;51.718;19.446;2023-06-22T10:20:43;3.40;;;2.20;;
70970;SDS011;58632;51.718;19.446;2023-06-22T10:23:10;4.10;;;2.20;;
70970;SDS011;58632;51.718;19.446;2023-06-22T10:25:35;3.50;;;2.10;;
70970;SDS011;58632;51.718;19.446;2023-06-22T10:28:01;3.60;;;2.30;;
70970;SDS011;58632;51.718;19.446;2023-06-22T10:30:26;4.20;;;2.40;;
70970;SDS011;58632;51.718;19.446;2023-06-22T10:32:54;3.40;;;2.30;;
70970;SDS011;58632;51.718;19.446;2023-06-22T10:35:19;4.70;;;2.20;;
70970;SDS011;58632;51.718;19.446;2023-06-22T10:37:45;5.00;;;2.20;;
70970;SDS011;58632;51.718;19.446;2023-06-22T10:40:12;3.70;;;2.30;;
70970;SDS011;58632;51.718;19.446;2023-06-22T10:42:43;4.00;;;2.20;;
70970;SDS011;58632;51.718;19.446;2023-06-22T10:45:09;2.50;;;2.00;;
70970;SDS011;58632;51.718;19.446;2023-06-22T10:47:34;3.40;;;2.30;;
70970;SDS011;58632;51.718;19.446;2023-06-22T10:50:00;4.90;;;2.80;;
70970;SDS011;58632;51.718;19.446;2023-06-22T10:52:26;4.60;;;2.40;;
70970;SDS011;58632;51.718;19.446;2023-06-22T10:54:52;3.10;;;2.30;;
70970;SDS011;58632;51.718;19.446;2023-06-22T10:57:17;3.70;;;2.30;;
70970;SDS011;58632;51.718;19.446;2023-06-22T10:59:43;4.00;;;2.30;;
70970;SDS011;58632;51.718;19.446;2023-06-22T11:02:09;5.00;;;2.40;;
70970;SDS011;58632;51.718;19.446;2023-06-22T11:04:35;3.20;;;2.00;;
70970;SDS011;58632;51.718;19.446;2023-06-22T11:07:00;9.40;;;2.50;;
70970;SDS011;58632;51.718;19.446;2023-06-22T11:09:26;2.70;;;2.00;;
70970;SDS011;58632;51.718;19.446;2023-06-22T11:11:52;3.30;;;2.10;;
70970;SDS011;58632;51.718;19.446;2023-06-22T11:14:18;5.40;;;2.20;;
70970;SDS011;58632;51.718;19.446;2023-06-22T11:16:44;3.00;;;2.10;;
70970;SDS011;58632;51.718;19.446;2023-06-22T11:19:11;3.90;;;2.30;;
70970;SDS011;58632;51.718;19.446;2023-06-22T11:24:02;4.90;;;2.50;;
70970;SDS011;58632;51.718;19.446;2023-06-22T11:26:31;3.40;;;1.80;;
70970;SDS011;58632;51.718;19.446;2023-06-22T11:31:22;3.40;;;2.00;;
70970;SDS011;58632;51.718;19.446;2023-06-22T11:33:48;4.30;;;2.00;;
70970;SDS011;58632;51.718;19.446;2023-06-22T11:36:14;4.50;;;2.10;;
70970;SDS011;58632;51.718;19.446;2023-06-22T11:38:40;3.10;;;1.90;;
70970;SDS011;58632;51.718;19.446;2023-06-22T11:41:08;6.90;;;2.50;;
70970;SDS011;58632;51.718;19.446;2023-06-22T11:43:34;3.10;;;2.00;;
70970;SDS011;58632;51.718;19.446;2023-06-22T11:46:03;3.50;;;2.10;;
70970;SDS011;58632;51.718;19.446;2023-06-22T11:48:29;3.10;;;2.30;;
70970;SDS011;58632;51.718;19.446;2023-06-22T11:53:21;3.60;;;2.30;;
70970;SDS011;58632;51.718;19.446;2023-06-22T11:55:47;4.80;;;2.20;;
70970;SDS011;58632;51.718;19.446;2023-06-22T11:58:13;6.10;;;2.10;;
70970;SDS011;58632;51.718;19.446;2023-06-22T12:00:38;7.50;;;1.90;;
70970;SDS011;58632;51.718;19.446;2023-06-22T12:03:04;4.30;;;2.50;;
70970;SDS011;58632;51.718;19.446;2023-06-22T12:05:30;6.40;;;2.40;;
70970;SDS011;58632;51.718;19.446;2023-06-22T12:07:55;6.60;;;2.10;;
70970;SDS011;58632;51.718;19.446;2023-06-22T12:10:22;6.00;;;2.50;;
70970;SDS011;58632;51.718;19.446;2023-06-22T12:12:48;6.50;;;2.40;;
70970;SDS011;58632;51.718;19.446;2023-06-22T12:15:14;4.60;;;2.40;;
70970;SDS011;58632;51.718;19.446;2023-06-22T12:17:40;4.80;;;2.40;;
70970;SDS011;58632;51.718;19.446;2023-06-22T12:22:32;5.70;;;2.30;;
70970;SDS011;58632;51.718;19.446;2023-06-22T12:27:25;5.20;;;2.40;;
70970;SDS011;58632;51.718;19.446;2023-06-22T12:29:51;4.10;;;2.50;;
70970;SDS011;58632;51.718;19.446;2023-06-22T12:32:17;4.20;;;2.70;;
70970;SDS011;58632;51.718;19.446;2023-06-22T12:34:43;3.60;;;2.80;;
70970;SDS011;58632;51.718;19.446;2023-06-22T12:37:09;4.10;;;2.20;;
70970;SDS011;58632;51.718;19.446;2023-06-22T12:39:35;4.40;;;2.30;;
70970;SDS011;58632;51.718;19.446;2023-06-22T12:44:29;3.70;;;2.30;;
70970;SDS011;58632;51.718;19.446;2023-06-22T12:46:54;3.90;;;2.30;;
70970;SDS011;58632;51.718;19.446;2023-06-22T12:54:11;5.30;;;2.40;;
70970;SDS011;58632;51.718;19.446;2023-06-22T12:56:37;3.60;;;2.20;;
70970;SDS011;58632;51.718;19.446;2023-06-22T12:59:03;4.60;;;2.20;;
70970;SDS011;58632;51.718;19.446;2023-06-22T13:01:30;3.00;;;2.10;;
70970;SDS011;58632;51.718;19.446;2023-06-22T13:03:57;4.70;;;2.00;;
70970;SDS011;58632;51.718;19.446;2023-06-22T13:06:23;4.20;;;2.30;;
70970;SDS011;58632;51.718;19.446;2023-06-22T13:08:49;3.30;;;2.30;;
70970;SDS011;58632;51.718;19.446;2023-06-22T13:11:14;3.20;;;2.30;;
70970;SDS011;58632;51.718;19.446;2023-06-22T13:13:40;4.40;;;2.20;;
70970;SDS011;58632;51.718;19.446;2023-06-22T13:16:08;3.90;;;2.30;;
70970;SDS011;58632;51.718;19.446;2023-06-22T13:18:33;3.30;;;2.30;;
70970;SDS011;58632;51.718;19.446;2023-06-22T13:21:01;4.60;;;2.40;;
70970;SDS011;58632;51.718;19.446;2023-06-22T13:23:27;3.20;;;2.10;;
70970;SDS011;58632;51.718;19.446;2023-06-22T13:25:52;3.80;;;2.20;;
70970;SDS011;58632;51.718;19.446;2023-06-22T13:28:18;3.50;;;2.10;;
70970;SDS011;58632;51.718;19.446;2023-06-22T13:30:43;4.40;;;2.40;;
70970;SDS011;58632;51.718;19.446;2023-06-22T13:33:12;3.80;;;2.70;;
70970;SDS011;58632;51.718;19.446;2023-06-22T13:35:38;3.20;;;2.30;;
70970;SDS011;58632;51.718;19.446;2023-06-22T13:38:04;3.50;;;2.30;;
70970;SDS011;58632;51.718;19.446;2023-06-22T13:40:29;4.60;;;2.40;;
70970;SDS011;58632;51.718;19.446;2023-06-22T13:45:21;3.60;;;2.20;;
70970;SDS011;58632;51.718;19.446;2023-06-22T13:47:49;3.80;;;2.40;;
70970;SDS011;58632;51.718;19.446;2023-06-22T13:50:15;4.80;;;2.30;;
70970;SDS011;58632;51.718;19.446;2023-06-22T13:52:40;3.20;;;2.20;;
70970;SDS011;58632;51.718;19.446;2023-06-22T13:55:05;5.10;;;2.50;;
70970;SDS011;58632;51.718;19.446;2023-06-22T13:57:32;5.90;;;2.50;;
70970;SDS011;58632;51.718;19.446;2023-06-22T13:59:58;5.90;;;2.60;;
70970;SDS011;58632;51.718;19.446;2023-06-22T14:02:25;5.40;;;2.60;;
70970;SDS011;58632;51.718;19.446;2023-06-22T14:04:51;4.40;;;2.20;;
70970;SDS011;58632;51.718;19.446;2023-06-22T14:07:19;3.70;;;2.20;;
70970;SDS011;58632;51.718;19.446;2023-06-22T14:09:46;5.10;;;2.40;;
70970;SDS011;58632;51.718;19.446;2023-06-22T14:14:42;4.80;;;2.30;;
70970;SDS011;58632;51.718;19.446;2023-06-22T14:17:07;6.30;;;2.90;;
70970;SDS011;58632;51.718;19.446;2023-06-22T14:19:33;4.00;;;2.50;;
70970;SDS011;58632;51.718;19.446;2023-06-22T14:21:59;3.80;;;2.30;;
70970;SDS011;58632;51.718;19.446;2023-06-22T14:24:24;3.90;;;2.80;;
70970;SDS011;58632;51.718;19.446;2023-06-22T14:26:53;4.30;;;2.30;;
70970;SDS011;58632;51.718;19.446;2023-06-22T14:29:19;3.70;;;2.60;;
70970;SDS011;58632;51.718;19.446;2023-06-22T14:31:51;5.90;;;2.50;;
70970;SDS011;58632;51.718;19.446;2023-06-22T14:34:16;3.90;;;2.60;;
70970;SDS011;58632;51.718;19.446;2023-06-22T14:36:44;6.10;;;2.60;;
70970;SDS011;58632;51.718;19.446;2023-06-22T14:39:10;4.00;;;2.60;;
70970;SDS011;58632;51.718;19.446;2023-06-22T14:41:35;5.70;;;2.60;;
70970;SDS011;58632;51.718;19.446;2023-06-22T14:44:01;6.70;;;2.40;;
70970;SDS011;58632;51.718;19.446;2023-06-22T14:46:26;4.50;;;2.20;;
70970;SDS011;58632;51.718;19.446;2023-06-22T14:51:18;3.20;;;2.50;;
70970;SDS011;58632;51.718;19.446;2023-06-22T14:53:44;4.60;;;2.60;;
70970;SDS011;58632;51.718;19.446;2023-06-22T14:56:10;5.00;;;2.50;;
70970;SDS011;58632;51.718;19.446;2023-06-22T14:58:37;4.20;;;2.50;;
70970;SDS011;58632;51.718;19.446;2023-06-22T15:01:05;3.70;;;2.70;;
70970;SDS011;58632;51.718;19.446;2023-06-22T15:03:34;3.80;;;2.40;;
70970;SDS011;58632;51.718;19.446;2023-06-22T15:06:01;3.90;;;2.70;;
70970;SDS011;58632;51.718;19.446;2023-06-22T15:08:30;5.60;;;2.70;;
70970;SDS011;58632;51.718;19.446;2023-06-22T15:10:58;5.20;;;2.60;;
70970;SDS011;58632;51.718;19.446;2023-06-22T15:13:26;8.00;;;3.70;;
70970;SDS011;58632;51.718;19.446;2023-06-22T15:15:52;8.70;;;4.10;;
70970;SDS011;58632;51.718;19.446;2023-06-22T15:18:18;6.70;;;2.70;;
70970;SDS011;58632;51.718;19.446;2023-06-22T15:20:44;9.00;;;3.20;;
70970;SDS011;58632;51.718;19.446;2023-06-22T15:23:13;7.00;;;2.70;;
70970;SDS011;58632;51.718;19.446;2023-06-22T15:25:38;4.50;;;2.50;;